Time;durP1;ratioP1;P1;durP2;ratioP2;P2;SDS_P1;SDS_P2;PMS_P1;PMS_P2;Temp;Humidity;BMP_temperature;BMP_pressure;BME280_temperature;BME280_humidity;BME280_pressure;Samples;Min_cycle;Max_cycle;Signal;HPM_P1;HPM_P2
2023/07/24 00:01:48;;;;;;;8.68;7.20;;;;;;;22.32;100.00;98869.03;5065874;28;20701;-75
2023/07/24 00:04:15;;;;;;;7.95;7.15;;;;;;;22.30;100.00;98865.81;5071511;28;20201;-76
2023/07/24 00:06:42;;;;;;;8.13;7.32;;;;;;;22.22;100.00;98869.31;5071537;28;20232;-75
2023/07/24 00:09:08;;;;;;;6.93;6.32;;;;;;;22.18;100.00;98867.50;5071267;28;20677;-76
2023/07/24 00:11:35;;;;;;;7.97;7.20;;;;;;;22.10;100.00;98871.81;5071524;28;20575;-75
2023/07/24 00:14:02;;;;;;;7.88;7.10;;;;;;;22.08;100.00;98865.06;5071200;28;20193;-75
2023/07/24 00:16:29;;;;;;;7.85;7.05;;;;;;;22.10;100.00;98873.75;5071421;28;20194;-75
2023/07/24 00:18:56;;;;;;;7.30;6.55;;;;;;;22.09;100.00;98862.03;5058793;28;20384;-75
2023/07/24 00:21:22;;;;;;;7.50;6.80;;;;;;;22.03;100.00;98862.47;5075438;28;20319;-76
2023/07/24 00:23:49;;;;;;;7.35;6.65;;;;;;;21.99;100.00;98865.00;5075443;28;20528;-76
2023/07/24 00:26:16;;;;;;;7.25;6.55;;;;;;;21.96;100.00;98873.81;5073900;28;20215;-75
2023/07/24 00:28:42;;;;;;;7.78;6.65;;;;;;;21.93;100.00;98861.59;5074587;28;20201;-75
2023/07/24 00:31:09;;;;;;;7.68;6.88;;;;;;;21.93;100.00;98858.06;5074600;28;20268;-75
2023/07/24 00:33:36;;;;;;;7.00;6.30;;;;;;;21.86;100.00;98861.22;5073262;28;20189;-76
2023/07/24 00:36:04;;;;;;;7.45;6.75;;;;;;;21.86;100.00;98853.06;5074846;28;20184;-75
2023/07/24 00:38:30;;;;;;;7.05;6.38;;;;;;;21.82;100.00;98846.63;5071808;28;20187;-76
2023/07/24 00:40:57;;;;;;;8.52;7.28;;;;;;;21.83;100.00;98852.88;5070038;28;20600;-76
2023/07/24 00:43:25;;;;;;;7.85;6.97;;;;;;;21.80;100.00;98848.84;5050838;28;20198;-75
2023/07/24 00:45:54;;;;;;;7.28;6.57;;;;;;;21.79;100.00;98849.16;5057952;28;20181;-75
2023/07/24 00:48:21;;;;;;;7.30;6.60;;;;;;;21.74;100.00;98849.28;5053481;28;20649;-75
2023/07/24 00:50:48;;;;;;;7.88;7.03;;;;;;;21.71;100.00;98842.53;5070557;28;20557;-76
2023/07/24 00:53:16;;;;;;;7.57;6.82;;;;;;;21.68;100.00;98850.53;5074781;28;20604;-75
2023/07/24 00:55:43;;;;;;;7.10;6.50;;;;;;;21.64;100.00;98847.63;5074631;28;20211;-76
2023/07/24 00:58:11;;;;;;;7.20;6.50;;;;;;;21.63;100.00;98842.47;5043941;28;20201;-76
2023/07/24 01:00:39;;;;;;;7.15;6.45;;;;;;;21.64;100.00;98839.44;5074543;28;20193;-77
2023/07/24 01:03:07;;;;;;;7.78;6.97;;;;;;;21.63;100.00;98842.47;5066678;28;20228;-78
2023/07/24 01:05:36;;;;;;;7.70;6.38;;;;;;;21.61;100.00;98839.25;5060462;28;20318;-76
2023/07/24 01:08:03;;;;;;;7.22;6.53;;;;;;;21.61;100.00;98837.31;5073538;28;20591;-76
2023/07/24 01:10:29;;;;;;;8.82;6.70;;;;;;;21.60;100.00;98841.19;5062818;28;20267;-78
2023/07/24 01:13:07;;;;;;;7.93;6.95;;;;;;;21.60;100.00;98843.91;5066078;28;20631;-78
2023/07/24 01:15:38;;;;;;;7.68;6.88;;;;;;;21.59;100.00;98836.03;5056473;28;20205;-77
2023/07/24 01:18:09;;;;;;;7.32;6.57;;;;;;;21.53;100.00;98825.25;5074281;28;20239;-76
2023/07/24 01:20:38;;;;;;;7.47;6.78;;;;;;;21.50;100.00;98833.25;5071875;28;20225;-78
2023/07/24 01:23:28;;;;;;;7.38;6.63;;;;;;;21.47;100.00;98836.59;5055475;28;20213;-79
2023/07/24 01:25:57;;;;;;;7.50;6.80;;;;;;;21.49;100.00;98846.06;5053522;28;20729;-79
2023/07/24 01:28:25;;;;;;;7.20;6.50;;;;;;;21.41;100.00;98844.09;5069416;28;20190;-78
2023/07/24 01:30:52;;;;;;;7.45;6.75;;;;;;;21.38;100.00;98831.06;5051042;28;20213;-78
2023/07/24 01:33:20;;;;;;;7.30;6.60;;;;;;;21.38;100.00;98839.25;5073875;28;20201;-75
2023/07/24 01:35:50;;;;;;;7.38;6.65;;;;;;;21.32;100.00;98836.97;5051537;28;20227;-75
2023/07/24 01:38:17;;;;;;;7.60;6.80;;;;;;;21.28;100.00;98825.06;5051171;28;20631;-75
2023/07/24 01:40:44;;;;;;;7.60;6.80;;;;;;;21.27;100.00;98837.09;5073902;28;20717;-75
2023/07/24 01:43:11;;;;;;;7.30;6.60;;;;;;;21.20;100.00;98831.25;5073711;28;20661;-75
2023/07/24 01:45:38;;;;;;;8.30;6.80;;;;;;;21.16;100.00;98830.25;5065794;28;20555;-75
2023/07/24 01:48:05;;;;;;;7.88;6.90;;;;;;;21.15;100.00;98825.91;5074215;28;20277;-75
2023/07/24 01:50:32;;;;;;;7.60;6.82;;;;;;;21.10;100.00;98824.09;5072188;28;20182;-75
2023/07/24 01:52:59;;;;;;;7.18;6.47;;;;;;;21.11;100.00;98822.97;5077670;28;20189;-76
2023/07/24 01:55:26;;;;;;;8.00;7.20;;;;;;;21.12;100.00;98821.06;5073569;28;20193;-75
2023/07/24 01:57:52;;;;;;;7.75;6.93;;;;;;;21.11;100.00;98825.69;5064115;28;20205;-76
2023/07/24 02:00:19;;;;;;;8.07;7.28;;;;;;;21.18;100.00;98819.88;5069480;28;20197;-76
2023/07/24 02:02:46;;;;;;;8.00;7.20;;;;;;;21.19;100.00;98814.09;5056718;28;20204;-75
2023/07/24 02:05:13;;;;;;;7.75;6.95;;;;;;;21.18;100.00;98815.22;5061933;28;20203;-75
2023/07/24 02:07:41;;;;;;;7.43;6.72;;;;;;;21.21;100.00;98817.31;5108857;28;20245;-76
2023/07/24 02:10:08;;;;;;;8.50;7.13;;;;;;;21.20;100.00;98809.47;5091048;28;20201;-76
2023/07/24 02:12:35;;;;;;;8.60;7.53;;;;;;;21.18;100.00;98807.06;5108839;28;20213;-77
2023/07/24 02:15:02;;;;;;;9.75;7.10;;;;;;;21.14;100.00;98813.44;5094131;28;20191;-75
2023/07/24 02:17:29;;;;;;;7.10;6.50;;;;;;;21.12;100.00;98812.91;5107894;28;20193;-76
2023/07/24 02:19:56;;;;;;;7.78;6.97;;;;;;;21.09;100.00;98812.38;5092938;28;20625;-76
2023/07/24 02:22:23;;;;;;;7.57;6.78;;;;;;;21.07;100.00;98805.66;5072885;28;20234;-75
2023/07/24 02:24:50;;;;;;;7.38;6.68;;;;;;;21.03;100.00;98810.09;5087493;28;20191;-76
2023/07/24 02:27:31;;;;;;;7.72;6.85;;;;;;;21.01;100.00;98804.94;5086755;28;20761;-78
2023/07/24 02:29:58;;;;;;;7.78;7.05;;;;;;;20.96;100.00;98806.97;5086492;28;20195;-76
2023/07/24 02:32:24;;;;;;;7.72;7.03;;;;;;;20.97;100.00;98803.16;5092730;28;20217;-76
2023/07/24 02:34:52;;;;;;;7.63;6.93;;;;;;;20.96;100.00;98802.34;5104598;28;20201;-75
2023/07/24 02:37:19;;;;;;;7.63;6.93;;;;;;;20.90;100.00;98795.41;5081053;28;20298;-75
2023/07/24 02:39:46;;;;;;;7.53;6.82;;;;;;;20.87;100.00;98803.38;5079861;28;20224;-75
2023/07/24 02:42:12;;;;;;;7.82;7.05;;;;;;;20.81;100.00;98799.19;5067152;28;20197;-74
2023/07/24 02:44:39;;;;;;;7.47;6.78;;;;;;;20.76;100.00;98799.28;5061604;28;20201;-75
2023/07/24 02:47:06;;;;;;;7.53;6.80;;;;;;;20.75;100.00;98789.50;5089383;28;20258;-75
2023/07/24 02:49:33;;;;;;;7.97;7.18;;;;;;;20.73;100.00;98791.72;5071362;28;20278;-75
2023/07/24 02:51:59;;;;;;;7.85;7.05;;;;;;;20.63;100.00;98790.84;5094970;28;20217;-76
2023/07/24 02:54:27;;;;;;;7.78;6.97;;;;;;;20.55;100.00;98790.75;5074526;28;20295;-76
2023/07/24 02:56:53;;;;;;;8.02;7.20;;;;;;;20.55;100.00;98788.03;5086667;28;20254;-75
2023/07/24 02:59:20;;;;;;;9.88;7.18;;;;;;;20.48;100.00;98788.44;5070920;28;20215;-75
2023/07/24 03:01:47;;;;;;;8.23;7.43;;;;;;;20.44;100.00;98790.16;5062734;28;20687;-76
2023/07/24 03:04:14;;;;;;;7.72;6.93;;;;;;;20.40;100.00;98775.53;5090563;28;20193;-74
2023/07/24 03:06:40;;;;;;;8.25;7.45;;;;;;;20.37;100.00;98783.50;5078677;28;20221;-75
2023/07/24 03:09:07;;;;;;;8.00;7.20;;;;;;;20.33;100.00;98782.50;5071984;28;20200;-74
2023/07/24 03:11:34;;;;;;;8.05;7.25;;;;;;;20.27;100.00;98776.34;5071938;28;20689;-78
2023/07/24 03:14:01;;;;;;;8.45;7.50;;;;;;;20.25;100.00;98775.03;5071988;28;20566;-76
2023/07/24 03:16:28;;;;;;;7.90;7.10;;;;;;;20.24;100.00;98771.53;5070042;28;20219;-76
2023/07/24 03:18:56;;;;;;;7.85;7.05;;;;;;;20.19;100.00;98767.00;5053957;28;20205;-75
2023/07/24 03:21:23;;;;;;;8.18;7.22;;;;;;;20.21;100.00;98764.75;5047048;28;20212;-76
2023/07/24 03:23:49;;;;;;;8.02;7.22;;;;;;;20.19;100.00;98760.75;5071614;28;20196;-74
2023/07/24 03:26:16;;;;;;;8.68;7.25;;;;;;;20.23;100.00;98759.03;5070921;28;20646;-76
2023/07/24 03:28:43;;;;;;;8.32;7.53;;;;;;;20.26;100.00;98752.97;5071279;28;20189;-75
2023/07/24 03:31:10;;;;;;;8.13;7.32;;;;;;;20.27;100.00;98746.41;5070681;28;20217;-75
2023/07/24 03:33:36;;;;;;;8.25;6.68;;;;;;;20.30;100.00;98745.84;5071593;28;20276;-75
2023/07/24 03:36:03;;;;;;;7.90;7.18;;;;;;;20.33;100.00;98747.97;5070958;28;20196;-75
2023/07/24 03:38:30;;;;;;;8.20;7.40;;;;;;;20.37;100.00;98742.72;5067666;28;20607;-75
2023/07/24 03:40:57;;;;;;;8.10;7.40;;;;;;;20.40;100.00;98748.34;5057886;28;20208;-75
2023/07/24 03:43:23;;;;;;;8.23;6.90;;;;;;;20.44;100.00;98743.91;5071675;28;20668;-75
2023/07/24 03:45:50;;;;;;;8.18;7.38;;;;;;;20.51;100.00;98741.59;5071329;28;20192;-75
2023/07/24 03:48:17;;;;;;;7.95;7.15;;;;;;;20.54;100.00;98748.31;5071689;28;20698;-75
2023/07/24 03:50:43;;;;;;;7.65;6.95;;;;;;;20.62;100.00;98755.78;5071393;28;20196;-75
2023/07/24 03:53:10;;;;;;;7.95;7.15;;;;;;;20.63;100.00;98754.66;5070378;28;20220;-76
2023/07/24 03:55:37;;;;;;;7.63;6.80;;;;;;;20.64;100.00;98748.91;5071285;28;20671;-75
2023/07/24 03:58:04;;;;;;;7.82;7.13;;;;;;;20.72;100.00;98754.75;5071692;28;20192;-76
2023/07/24 04:00:30;;;;;;;7.70;6.97;;;;;;;20.82;100.00;98754.50;5071691;28;20602;-77
2023/07/24 04:02:57;;;;;;;7.80;7.10;;;;;;;20.91;100.00;98744.47;5072125;28;20206;-76
2023/07/24 04:05:24;;;;;;;7.35;6.63;;;;;;;21.10;100.00;98747.81;5070906;28;20294;-77
2023/07/24 04:07:51;;;;;;;7.80;6.43;;;;;;;21.55;100.00;98751.38;5071614;28;20661;-77
2023/07/24 04:10:17;;;;;;;8.18;7.35;;;;;;;21.89;100.00;98754.25;5071136;28;20251;-79
2023/07/24 04:12:44;;;;;;;7.45;6.65;;;;;;;21.97;100.00;98760.09;5070091;28;20221;-76
2023/07/24 04:15:11;;;;;;;7.72;7.03;;;;;;;21.99;100.00;98758.66;5068493;28;20197;-75
2023/07/24 04:17:39;;;;;;;7.72;7.03;;;;;;;21.99;100.00;98766.03;5067788;28;20228;-78
2023/07/24 04:20:07;;;;;;;8.52;7.15;;;;;;;21.98;100.00;98756.25;5067626;28;20205;-77
2023/07/24 04:22:33;;;;;;;7.93;6.55;;;;;;;21.98;100.00;98746.13;5062509;28;20193;-76
2023/07/24 04:25:00;;;;;;;8.32;7.00;;;;;;;22.03;100.00;98753.34;5063380;28;20243;-77
2023/07/24 04:27:27;;;;;;;7.60;6.75;;;;;;;22.08;100.00;98743.13;5063350;28;20193;-75
2023/07/24 04:29:53;;;;;;;9.15;6.88;;;;;;;22.17;100.00;98741.22;5062477;28;20259;-77
2023/07/24 04:32:20;;;;;;;7.03;6.32;;;;;;;22.26;100.00;98755.69;5061584;28;20224;-77
2023/07/24 04:34:47;;;;;;;7.90;6.82;;;;;;;22.40;100.00;98759.09;5059779;28;20203;-78
2023/07/24 04:37:13;;;;;;;7.57;6.88;;;;;;;22.58;100.00;98757.22;5062246;28;20625;-77
2023/07/24 04:39:40;;;;;;;7.30;6.60;;;;;;;22.76;100.00;98755.34;5058948;28;20254;-77
2023/07/24 04:42:07;;;;;;;7.32;6.63;;;;;;;22.84;100.00;98760.00;5069521;28;20255;-77
2023/07/24 04:44:33;;;;;;;6.97;6.28;;;;;;;22.93;100.00;98760.00;5069288;28;20185;-77
2023/07/24 04:47:01;;;;;;;7.45;6.55;;;;;;;23.02;100.00;98767.06;5066740;28;20195;-78
2023/07/24 04:49:29;;;;;;;7.70;6.22;;;;;;;23.13;100.00;98773.00;5070766;28;20284;-77
2023/07/24 04:51:56;;;;;;;9.27;6.78;;;;;;;23.22;100.00;98760.16;5071160;28;20542;-77
2023/07/24 04:54:23;;;;;;;8.57;6.47;;;;;;;23.40;100.00;98774.59;5071678;28;20193;-76
2023/07/24 04:56:50;;;;;;;6.72;6.05;;;;;;;23.42;100.00;98775.88;5071073;28;20205;-75
2023/07/24 04:59:16;;;;;;;8.05;6.55;;;;;;;23.54;100.00;98767.84;5070955;28;20202;-75
2023/07/24 05:01:43;;;;;;;7.25;6.35;;;;;;;23.74;100.00;98769.06;5070965;28;20204;-75
2023/07/24 05:04:10;;;;;;;8.55;6.93;;;;;;;23.86;100.00;98763.72;5073292;28;20243;-75
2023/07/24 05:06:38;;;;;;;6.88;6.25;;;;;;;23.97;100.00;98756.75;5074894;28;20708;-75
2023/07/24 05:09:04;;;;;;;6.50;5.88;;;;;;;24.11;100.00;98762.00;5072810;28;20211;-75
2023/07/24 05:11:31;;;;;;;7.25;6.07;;;;;;;24.13;100.00;98760.53;5074094;28;20189;-74
2023/07/24 05:13:58;;;;;;;7.32;6.45;;;;;;;24.30;100.00;98754.22;5074385;28;20197;-75
2023/07/24 05:16:24;;;;;;;8.57;6.25;;;;;;;24.39;100.00;98756.91;5074665;28;20750;-76
2023/07/24 05:18:51;;;;;;;6.75;6.13;;;;;;;24.62;100.00;98755.47;5073883;28;20196;-75
2023/07/24 05:21:18;;;;;;;8.65;6.50;;;;;;;24.92;100.00;98753.47;5073833;28;20593;-76
2023/07/24 05:23:44;;;;;;;7.40;6.60;;;;;;;25.30;100.00;98756.84;5070633;28;20588;-76
2023/07/24 05:26:11;;;;;;;7.65;6.82;;;;;;;25.63;100.00;98756.06;5074389;28;20693;-75
2023/07/24 05:28:38;;;;;;;7.72;7.03;;;;;;;25.85;100.00;98755.63;5074399;28;20193;-75
2023/07/24 05:31:05;;;;;;;8.70;6.80;;;;;;;25.96;100.00;98759.56;5072289;28;20207;-79
2023/07/24 05:33:32;;;;;;;7.13;6.45;;;;;;;25.84;100.00;98763.09;5074148;28;20220;-76
2023/07/24 05:36:03;;;;;;;7.63;6.93;;;;;;;25.93;100.00;98770.41;5074175;28;20577;-76
2023/07/24 05:38:30;;;;;;;8.70;6.35;;;;;;;25.95;100.00;98768.91;5074354;28;20656;-76
2023/07/24 05:41:02;;;;;;;8.82;6.85;;;;;;;26.15;100.00;98762.53;5060184;28;20189;-78
2023/07/24 05:43:30;;;;;;;8.02;6.40;;;;;;;26.11;100.00;98755.34;5074460;28;20216;-79
2023/07/24 05:45:57;;;;;;;8.02;6.68;;;;;;;26.14;100.00;98754.63;5074206;28;20192;-79
2023/07/24 05:48:24;;;;;;;8.30;6.57;;;;;;;26.19;100.00;98749.72;5073629;28;20185;-76
2023/07/24 05:50:51;;;;;;;8.48;6.80;;;;;;;26.41;100.00;98747.69;5073712;28;20227;-79
2023/07/24 05:53:18;;;;;;;9.35;6.53;;;;;;;26.55;100.00;98748.91;5073939;28;20302;-76
2023/07/24 05:55:45;;;;;;;8.85;6.13;;;;;;;26.66;100.00;98744.56;5073820;28;20255;-79
2023/07/24 05:58:12;;;;;;;6.65;5.90;;;;;;;26.63;100.00;98742.50;5073868;28;20193;-76
2023/07/24 06:00:38;;;;;;;7.82;6.43;;;;;;;26.66;100.00;98736.31;5055860;28;20200;-79
2023/07/24 06:03:05;;;;;;;8.27;7.25;;;;;;;26.63;100.00;98730.72;5073726;28;20201;-79
2023/07/24 06:05:34;;;;;;;9.18;6.65;;;;;;;26.75;100.00;98725.19;5071167;28;20233;-77
2023/07/24 06:08:01;;;;;;;11.75;6.80;;;;;;;26.68;100.00;98720.28;5066456;28;20664;-78
2023/07/24 06:10:28;;;;;;;7.55;6.80;;;;;;;26.74;100.00;98718.06;5068253;28;20197;-80
2023/07/24 06:12:55;;;;;;;10.27;6.32;;;;;;;26.85;100.00;98710.16;5069269;28;20209;-80
2023/07/24 06:15:22;;;;;;;8.20;6.75;;;;;;;26.94;100.00;98699.84;5072363;28;20200;-77
2023/07/24 06:17:49;;;;;;;7.28;6.57;;;;;;;27.07;100.00;98706.88;5072049;28;20197;-77
2023/07/24 06:20:20;;;;;;;9.80;6.57;;;;;;;27.22;100.00;98700.63;5066760;28;20232;-77
2023/07/24 06:22:46;;;;;;;7.60;6.15;;;;;;;27.34;100.00;98702.53;5064724;28;20200;-79
2023/07/24 06:25:13;;;;;;;7.82;6.65;;;;;;;27.47;100.00;98690.31;5072730;28;20197;-77
2023/07/24 06:27:40;;;;;;;8.43;6.53;;;;;;;27.55;100.00;98692.09;5064981;28;20193;-77
2023/07/24 06:30:07;;;;;;;8.32;6.18;;;;;;;27.71;100.00;98689.38;5068572;28;20660;-76
2023/07/24 06:32:42;;;;;;;8.45;6.93;;;;;;;27.85;100.00;98697.97;5069699;28;20294;-77
2023/07/24 06:35:09;;;;;;;7.60;6.82;;;;;;;27.90;100.00;98679.22;5069697;28;20205;-79
2023/07/24 06:37:36;;;;;;;9.48;6.18;;;;;;;27.99;100.00;98679.84;5072860;28;20272;-78
2023/07/24 06:40:03;;;;;;;8.35;6.72;;;;;;;28.13;100.00;98681.38;5072706;28;20189;-77
2023/07/24 06:42:29;;;;;;;8.13;6.78;;;;;;;28.25;100.00;98684.00;5073047;28;20602;-78
2023/07/24 06:44:56;;;;;;;7.25;6.55;;;;;;;28.40;100.00;98678.47;5071585;28;20236;-77
2023/07/24 06:47:23;;;;;;;7.65;6.53;;;;;;;28.57;100.00;98687.47;5072972;28;20910;-79
2023/07/24 06:49:49;;;;;;;7.47;6.70;;;;;;;28.73;100.00;98678.03;5073084;28;20212;-76
2023/07/24 06:52:16;;;;;;;7.93;6.40;;;;;;;28.84;100.00;98681.78;5072038;28;20295;-77
2023/07/24 06:54:43;;;;;;;7.72;6.35;;;;;;;28.88;100.00;98677.13;5072882;28;20197;-79
2023/07/24 06:57:10;;;;;;;11.27;6.53;;;;;;;29.02;100.00;98670.31;5072323;28;20200;-78
2023/07/24 06:59:36;;;;;;;7.00;6.30;;;;;;;29.17;100.00;98663.91;5072390;28;20217;-80
2023/07/24 07:02:03;;;;;;;7.47;6.53;;;;;;;29.30;100.00;98665.38;5069955;28;20538;-79
2023/07/24 07:04:30;;;;;;;8.70;7.07;;;;;;;29.46;100.00;98662.47;5070773;28;20196;-79
2023/07/24 07:06:57;;;;;;;8.02;7.07;;;;;;;29.50;100.00;98668.84;5071946;28;20688;-79
2023/07/24 07:09:23;;;;;;;7.90;6.40;;;;;;;29.58;100.00;98659.56;5072584;28;20281;-78
2023/07/24 07:11:50;;;;;;;9.52;6.40;;;;;;;29.62;100.00;98658.44;5071957;28;20181;-79
2023/07/24 07:14:17;;;;;;;7.43;6.57;;;;;;;29.72;100.00;98657.81;5072146;28;20189;-79
2023/07/24 07:16:44;;;;;;;8.50;7.03;;;;;;;29.82;99.50;98653.63;5071940;28;20193;-79
2023/07/24 07:19:11;;;;;;;7.72;6.88;;;;;;;30.03;99.37;98648.47;5072246;28;20571;-79
2023/07/24 07:21:37;;;;;;;6.78;6.10;;;;;;;30.12;98.57;98648.22;5071967;28;20203;-79
2023/07/24 07:24:04;;;;;;;7.97;6.38;;;;;;;30.30;96.82;98645.69;5064839;28;20204;-79
2023/07/24 07:26:31;;;;;;;7.82;6.32;;;;;;;30.41;93.20;98647.44;5071502;28;20216;-77
2023/07/24 07:28:58;;;;;;;8.75;5.88;;;;;;;30.53;91.93;98655.53;5072065;28;20283;-78
2023/07/24 07:31:25;;;;;;;10.50;5.97;;;;;;;30.63;90.20;98644.97;5070311;28;20290;-79
2023/07/24 07:33:51;;;;;;;9.02;6.50;;;;;;;30.69;90.36;98635.97;5072066;28;20584;-79
2023/07/24 07:36:18;;;;;;;6.97;6.20;;;;;;;30.86;91.96;98623.53;5071769;28;20595;-79
2023/07/24 07:38:45;;;;;;;9.35;6.50;;;;;;;30.89;95.46;98614.50;5071864;28;20303;-78
2023/07/24 07:41:11;;;;;;;8.68;6.82;;;;;;;30.88;97.47;98605.41;5072063;28;20189;-79
2023/07/24 07:43:38;;;;;;;8.63;6.88;;;;;;;30.88;99.56;98612.91;5072038;28;20663;-79
2023/07/24 07:46:05;;;;;;;7.68;6.97;;;;;;;30.86;99.92;98607.72;5072042;28;20674;-77
2023/07/24 07:48:32;;;;;;;7.53;6.78;;;;;;;30.92;98.28;98610.97;5071842;28;20197;-79
2023/07/24 07:50:59;;;;;;;8.73;6.88;;;;;;;30.79;100.00;98610.44;5071679;28;20193;-77
2023/07/24 07:53:26;;;;;;;7.57;6.43;;;;;;;30.64;100.00;98611.44;5071865;28;20679;-78
2023/07/24 07:55:57;;;;;;;7.05;6.22;;;;;;;30.80;96.67;98606.47;5071819;28;20201;-79
2023/07/24 07:58:24;;;;;;;10.02;7.13;;;;;;;30.97;95.47;98599.56;5065996;28;20296;-79
2023/07/24 08:00:50;;;;;;;7.05;6.35;;;;;;;31.12;95.34;98604.09;5066935;28;20194;-79
2023/07/24 08:03:17;;;;;;;8.20;6.90;;;;;;;31.26;93.43;98595.13;5071520;28;20734;-80
2023/07/24 08:05:44;;;;;;;7.22;6.55;;;;;;;31.27;90.75;98594.75;5060836;28;20229;-80
2023/07/24 08:08:11;;;;;;;10.20;6.82;;;;;;;31.45;88.53;98589.34;5071402;28;20219;-78
2023/07/24 08:10:38;;;;;;;9.65;6.80;;;;;;;31.60;85.53;98591.09;5065984;28;20196;-79
2023/07/24 08:13:05;;;;;;;6.85;5.90;;;;;;;31.86;82.04;98581.78;5067188;28;20209;-79
2023/07/24 08:15:36;;;;;;;7.13;5.88;;;;;;;31.88;79.31;98571.91;5071512;28;20666;-79
2023/07/24 08:18:05;;;;;;;7.53;6.28;;;;;;;32.02;82.21;98565.66;5071200;28;20193;-79
2023/07/24 08:20:35;;;;;;;6.93;6.22;;;;;;;32.10;81.18;98567.31;5065613;28;20193;-79
2023/07/24 08:23:02;;;;;;;7.35;5.70;;;;;;;32.14;80.24;98559.03;5058860;28;20204;-79
2023/07/24 08:25:29;;;;;;;7.13;6.43;;;;;;;32.29;78.63;98561.47;5071343;28;20212;-80
2023/07/24 08:27:56;;;;;;;6.95;5.60;;;;;;;32.32;77.99;98557.13;5071698;28;20547;-79
2023/07/24 08:30:31;;;;;;;7.75;5.93;;;;;;;32.54;80.05;98563.53;5065340;28;20216;-79
2023/07/24 08:32:59;;;;;;;9.27;6.45;;;;;;;32.57;80.52;98560.00;5070733;28;20213;-79
2023/07/24 08:35:26;;;;;;;6.38;5.78;;;;;;;32.53;71.33;98564.72;5071420;28;20189;-79
2023/07/24 08:37:53;;;;;;;6.90;6.25;;;;;;;32.69;69.73;98554.13;5071104;28;20664;-79
2023/07/24 08:40:20;;;;;;;6.65;6.05;;;;;;;32.68;70.36;98553.31;5074596;28;20270;-79
2023/07/24 08:42:49;;;;;;;7.80;6.45;;;;;;;32.74;69.02;98545.41;5072719;28;20207;-79
2023/07/24 08:45:16;;;;;;;8.25;6.25;;;;;;;32.80;69.89;98543.06;5074819;28;20197;-79
2023/07/24 08:47:46;;;;;;;7.40;6.03;;;;;;;32.86;71.40;98550.59;5074629;28;20234;-79
2023/07/24 08:50:15;;;;;;;9.25;6.20;;;;;;;32.95;69.22;98541.88;5074925;28;20236;-79
2023/07/24 08:52:43;;;;;;;6.72;6.03;;;;;;;33.14;69.59;98539.53;5074322;28;20205;-78
2023/07/24 08:55:10;;;;;;;6.47;5.93;;;;;;;33.16;69.86;98539.16;5073318;28;20208;-79
2023/07/24 08:57:38;;;;;;;7.88;6.53;;;;;;;33.06;67.53;98535.16;5074110;28;20280;-79
2023/07/24 09:00:05;;;;;;;7.15;6.45;;;;;;;33.10;66.18;98521.28;5074732;28;20280;-79
2023/07/24 09:02:35;;;;;;;6.43;5.82;;;;;;;33.17;66.96;98524.91;5072757;28;20189;-79
2023/07/24 09:05:03;;;;;;;6.70;6.00;;;;;;;33.39;69.40;98519.34;5073182;28;20635;-79
2023/07/24 09:07:31;;;;;;;8.82;6.35;;;;;;;33.60;70.59;98516.53;5066507;28;20729;-78
2023/07/24 09:09:58;;;;;;;8.43;6.00;;;;;;;33.75;71.46;98520.91;5092097;28;20192;-79
2023/07/24 09:12:25;;;;;;;9.05;6.35;;;;;;;33.88;68.45;98519.28;5094281;28;20245;-79
2023/07/24 09:15:03;;;;;;;7.38;6.60;;;;;;;33.95;68.46;98516.47;5091735;28;20701;-80
2023/07/24 09:17:30;;;;;;;8.07;6.40;;;;;;;34.15;67.35;98513.25;5070521;28;20201;-78
2023/07/24 09:20:01;;;;;;;10.65;6.18;;;;;;;34.27;66.99;98499.72;5090502;28;20693;-79
2023/07/24 09:22:28;;;;;;;8.10;6.55;;;;;;;34.33;66.73;98492.53;5091384;28;20196;-79
2023/07/24 09:24:56;;;;;;;7.00;6.30;;;;;;;34.44;64.92;98484.13;5094151;28;20580;-78
2023/07/24 09:27:28;;;;;;;7.47;6.28;;;;;;;34.67;63.60;98476.06;5092557;28;20295;-79
2023/07/24 09:29:57;;;;;;;9.57;6.22;;;;;;;34.66;63.12;98476.47;5093510;28;20192;-79
2023/07/24 09:32:25;;;;;;;8.40;6.80;;;;;;;34.79;62.58;98463.69;5094528;28;20192;-79
2023/07/24 09:34:55;;;;;;;8.02;6.53;;;;;;;35.05;61.00;98457.50;5091087;28;20203;-79
2023/07/24 09:37:33;;;;;;;6.72;6.10;;;;;;;35.20;58.86;98458.19;5094045;28;20199;-79
2023/07/24 09:40:04;;;;;;;7.38;6.63;;;;;;;35.50;56.31;98451.94;5094783;28;20196;-79
2023/07/24 09:42:35;;;;;;;7.35;6.50;;;;;;;35.73;54.92;98443.75;5094166;28;20208;-78
2023/07/24 09:45:18;;;;;;;7.25;6.55;;;;;;;35.81;53.97;98438.88;5094418;28;20196;-79
2023/07/24 09:47:49;;;;;;;7.35;6.65;;;;;;;36.03;53.92;98426.25;5094228;28;20204;-79
2023/07/24 09:50:25;;;;;;;7.80;6.65;;;;;;;36.17;53.77;98420.53;5092322;28;20199;-78
2023/07/24 09:52:52;;;;;;;8.15;6.75;;;;;;;36.29;54.41;98416.38;5076268;28;20451;-78
2023/07/24 09:55:22;;;;;;;7.05;6.35;;;;;;;36.39;52.86;98409.88;5077174;28;20211;-78
2023/07/24 09:57:50;;;;;;;6.78;6.07;;;;;;;36.46;52.80;98404.97;5077975;28;20622;-78
2023/07/24 10:00:17;;;;;;;7.40;6.70;;;;;;;36.69;51.35;98395.06;5092309;28;20188;-78
2023/07/24 10:02:44;;;;;;;7.80;7.10;;;;;;;36.80;51.89;98395.69;5092986;28;20189;-79
2023/07/24 10:05:11;;;;;;;7.15;6.47;;;;;;;36.79;50.72;98391.31;5092073;28;20193;-78
2023/07/24 10:07:38;;;;;;;7.47;6.68;;;;;;;36.78;49.72;98384.16;5073151;28;20660;-78
2023/07/24 10:10:06;;;;;;;7.40;6.70;;;;;;;36.76;48.53;98379.03;5073344;28;20185;-78
2023/07/24 10:12:33;;;;;;;7.88;6.70;;;;;;;36.61;47.64;98372.09;5054792;28;20560;-78
2023/07/24 10:14:59;;;;;;;7.50;6.80;;;;;;;36.59;47.58;98366.09;5073217;28;20567;-78
2023/07/24 10:17:40;;;;;;;7.68;6.97;;;;;;;36.54;48.03;98356.22;5072818;28;20664;-79
2023/07/24 10:20:09;;;;;;;7.30;6.57;;;;;;;36.48;48.04;98362.72;5073250;28;20573;-78
2023/07/24 10:22:41;;;;;;;7.72;7.00;;;;;;;36.45;47.27;98347.59;5072559;28;20193;-79
2023/07/24 10:25:09;;;;;;;8.15;7.05;;;;;;;36.53;48.32;98345.50;5062941;28;20193;-79
2023/07/24 10:27:39;;;;;;;7.22;6.47;;;;;;;36.50;46.96;98343.53;5072637;28;20213;-78
2023/07/24 10:30:08;;;;;;;7.63;6.38;;;;;;;36.70;47.45;98361.19;5069032;28;20190;-79
2023/07/24 10:32:53;;;;;;;7.32;6.63;;;;;;;36.74;46.21;98338.78;5065049;28;20192;-79
2023/07/24 10:35:22;;;;;;;7.80;6.97;;;;;;;36.83;46.65;98336.22;5073643;28;20622;-78
2023/07/24 10:37:59;;;;;;;7.43;6.22;;;;;;;36.95;46.41;98339.22;5072785;28;20700;-78
2023/07/24 10:40:26;;;;;;;7.35;6.65;;;;;;;37.00;46.56;98327.53;5073354;28;20197;-78
2023/07/24 10:43:20;;;;;;;7.57;6.97;;;;;;;36.95;45.31;98319.69;5072985;28;20185;-79
2023/07/24 10:45:52;;;;;;;8.90;7.47;;;;;;;36.63;45.86;98323.00;5069588;28;20213;-79
2023/07/24 10:48:21;;;;;;;7.78;7.07;;;;;;;36.65;46.40;98321.81;5051399;28;20226;-78
2023/07/24 10:50:49;;;;;;;8.02;7.32;;;;;;;36.48;45.13;98307.72;5069233;28;20249;-78
2023/07/24 10:53:21;;;;;;;7.97;7.15;;;;;;;36.49;45.98;98314.84;5072561;28;20224;-78
2023/07/24 10:55:50;;;;;;;8.98;7.78;;;;;;;36.29;45.55;98302.84;5072338;28;20603;-78
2023/07/24 10:58:17;;;;;;;8.98;7.72;;;;;;;36.34;46.29;98294.00;5065504;28;20197;-78
2023/07/24 11:00:44;;;;;;;8.07;7.22;;;;;;;36.45;45.69;98286.22;5066646;28;20201;-79
2023/07/24 11:03:12;;;;;;;8.18;7.38;;;;;;;36.56;46.43;98284.06;5072119;28;20201;-79
2023/07/24 11:05:40;;;;;;;8.10;7.40;;;;;;;36.82;46.46;98276.84;5072185;28;20231;-78
2023/07/24 11:08:14;;;;;;;8.32;7.63;;;;;;;37.07;45.89;98268.03;5071200;28;20193;-78
2023/07/24 11:11:01;;;;;;;7.70;6.93;;;;;;;37.37;44.89;98253.06;5068035;28;20242;-79
2023/07/24 11:13:28;;;;;;;8.40;7.55;;;;;;;37.55;45.11;98252.69;5073031;28;20583;-79
2023/07/24 11:15:55;;;;;;;9.85;7.85;;;;;;;37.55;45.38;98250.69;5064045;28;20193;-78
2023/07/24 11:18:24;;;;;;;9.00;8.10;;;;;;;37.71;45.69;98241.53;5072200;28;20200;-79
2023/07/24 11:20:57;;;;;;;10.57;7.75;;;;;;;37.61;45.52;98234.97;5072242;28;20192;-78
2023/07/24 11:23:24;;;;;;;8.57;7.63;;;;;;;37.75;45.47;98226.25;5072508;28;20639;-79
2023/07/24 11:25:52;;;;;;;9.07;8.18;;;;;;;37.72;45.48;98218.75;5071816;28;20221;-79
2023/07/24 11:28:19;;;;;;;9.48;8.38;;;;;;;37.51;44.70;98218.44;5072208;28;20597;-79
2023/07/24 11:30:46;;;;;;;9.40;8.02;;;;;;;37.43;44.55;98206.63;5064860;28;20642;-76